createdAt,value
2022-11-09T00:01:30.525Z,9.00
2022-11-09T00:04:00.608Z,9.00
2022-11-09T00:06:30.196Z,8.90
2022-11-09T00:09:06.832Z,8.90
2022-11-09T00:11:36.297Z,8.90
2022-11-09T00:14:04.794Z,8.80
2022-11-09T00:16:33.336Z,8.80
2022-11-09T00:19:01.505Z,8.70
2022-11-09T00:21:29.678Z,8.70
2022-11-09T00:24:00.036Z,8.60
2022-11-09T00:26:28.696Z,8.60
2022-11-09T00:28:57.022Z,8.60
2022-11-09T00:31:26.065Z,8.50
2022-11-09T00:33:57.500Z,8.50
2022-11-09T00:36:28.273Z,8.50
2022-11-09T00:38:58.388Z,8.40
2022-11-09T00:41:29.154Z,8.40
2022-11-09T00:43:57.570Z,8.40
2022-11-09T00:46:26.080Z,8.40
2022-11-09T00:48:56.838Z,8.40
2022-11-09T00:51:25.758Z,8.40
2022-11-09T00:53:55.360Z,8.40
2022-11-09T00:56:24.621Z,8.40
2022-11-09T00:58:56.565Z,8.30
2022-11-09T01:01:25.291Z,8.30
2022-11-09T01:03:53.466Z,8.30
2022-11-09T01:06:24.890Z,8.30
2022-11-09T01:08:54.108Z,8.30
2022-11-09T01:11:23.887Z,8.30
2022-11-09T01:13:56.212Z,8.40
2022-11-09T01:16:25.482Z,8.40
2022-11-09T01:18:55.657Z,8.50
2022-11-09T01:21:26.729Z,8.50
2022-11-09T01:23:56.121Z,8.50
2022-11-09T01:26:24.615Z,8.60
2022-11-09T01:28:52.851Z,8.60
2022-11-09T01:31:23.659Z,8.60
2022-11-09T01:33:52.269Z,8.70
2022-11-09T01:36:22.576Z,8.70
2022-11-09T01:38:51.996Z,8.70
2022-11-09T01:41:22.729Z,8.80
2022-11-09T01:44:15.114Z,8.80
2022-11-09T01:46:52.722Z,8.90
2022-11-09T01:49:37.236Z,8.90
2022-11-09T01:52:10.282Z,9.00
2022-11-09T01:54:45.274Z,9.00
2022-11-09T01:57:21.794Z,9.10
2022-11-09T01:59:57.657Z,9.10
2022-11-09T02:02:27.262Z,9.10
2022-11-09T02:05:02.585Z,9.20
2022-11-09T02:07:31.693Z,9.20
2022-11-09T02:10:07.396Z,9.30
2022-11-09T02:12:39.255Z,9.30
2022-11-09T02:15:11.644Z,9.30
2022-11-09T02:17:44.144Z,9.30
2022-11-09T02:20:16.621Z,9.40
2022-11-09T02:22:45.415Z,9.40
2022-11-09T02:25:16.345Z,9.40
2022-11-09T02:27:45.619Z,9.40
2022-11-09T02:30:15.221Z,9.40
2022-11-09T02:32:43.589Z,9.40
2022-11-09T02:35:13.495Z,9.40
2022-11-09T02:37:48.683Z,9.40
2022-11-09T02:40:23.495Z,9.40
2022-11-09T02:42:51.755Z,9.40
2022-11-09T02:45:20.147Z,9.50
2022-11-09T02:47:48.266Z,9.50
2022-11-09T02:50:18.093Z,9.50
2022-11-09T02:52:46.324Z,9.50
2022-11-09T02:55:15.914Z,9.60
2022-11-09T02:57:44.708Z,9.60
2022-11-09T03:00:16.355Z,9.60
2022-11-09T03:02:45.691Z,9.70
2022-11-09T03:05:14.069Z,9.70
2022-11-09T03:07:45.776Z,9.70
2022-11-09T03:10:15.356Z,9.80
2022-11-09T03:12:43.525Z,9.80
2022-11-09T03:15:14.855Z,9.90
2022-11-09T03:17:46.336Z,9.90
2022-11-09T03:20:14.767Z,9.90
2022-11-09T03:22:45.294Z,10.00
2022-11-09T03:25:14.030Z,10.00
2022-11-09T03:27:42.399Z,10.00
2022-11-09T03:30:12.010Z,10.00
2022-11-09T03:32:41.215Z,10.10
2022-11-09T03:35:10.632Z,10.10
2022-11-09T03:37:38.973Z,10.10
2022-11-09T03:40:10.502Z,10.10
2022-11-09T03:42:45.664Z,10.10
2022-11-09T03:45:14.323Z,10.10
2022-11-09T03:47:42.686Z,10.10
2022-11-09T03:50:12.406Z,10.20
2022-11-09T03:52:40.905Z,10.20
2022-11-09T03:55:11.233Z,10.20
2022-11-09T03:57:39.498Z,10.20
2022-11-09T04:00:10.870Z,10.20
2022-11-09T04:02:41.857Z,10.20
2022-11-09T04:05:11.319Z,10.20
2022-11-09T04:07:39.959Z,10.20
2022-11-09T04:10:10.845Z,10.20
2022-11-09T04:12:39.004Z,10.10
2022-11-09T04:15:08.377Z,10.10
2022-11-09T04:17:36.533Z,10.10
2022-11-09T04:20:06.049Z,10.10
2022-11-09T04:22:36.444Z,10.10
2022-11-09T04:25:05.439Z,10.10
2022-11-09T04:27:34.958Z,10.10
2022-11-09T04:30:03.133Z,10.20
2022-11-09T04:32:31.292Z,10.20
2022-11-09T04:34:59.460Z,10.20
2022-11-09T04:37:27.634Z,10.20
2022-11-09T04:39:55.734Z,10.20
2022-11-09T04:42:23.849Z,10.20
2022-11-09T04:44:53.261Z,10.20
2022-11-09T04:47:21.375Z,10.20
2022-11-09T04:49:49.613Z,10.20
2022-11-09T04:52:17.762Z,10.20
2022-11-09T04:54:45.908Z,10.20
2022-11-09T04:57:14.056Z,10.20
2022-11-09T04:59:42.222Z,10.20
2022-11-09T05:02:11.743Z,10.20
2022-11-09T05:04:39.839Z,10.20
2022-11-09T05:07:07.998Z,10.20
2022-11-09T05:09:36.151Z,10.20
2022-11-09T05:12:04.388Z,10.20
2022-11-09T05:14:32.536Z,10.20
2022-11-09T05:17:00.722Z,10.20
2022-11-09T05:19:30.219Z,10.30
2022-11-09T05:22:18.378Z,10.30
2022-11-09T05:24:45.571Z,10.30
2022-11-09T05:27:13.702Z,10.30
2022-11-09T05:29:41.859Z,10.30
2022-11-09T05:32:10.099Z,10.30
2022-11-09T05:34:39.687Z,10.30
2022-11-09T05:37:07.820Z,10.30
2022-11-09T05:39:36.007Z,10.30
2022-11-09T05:42:04.289Z,10.30
2022-11-09T05:44:32.437Z,10.30
2022-11-09T05:47:00.558Z,10.30
2022-11-09T05:49:28.951Z,10.30
2022-11-09T05:51:58.693Z,10.40
2022-11-09T05:54:26.826Z,10.40
2022-11-09T05:56:54.923Z,10.40
2022-11-09T05:59:23.112Z,10.40
2022-11-09T06:01:51.319Z,10.40
2022-11-09T06:04:19.536Z,10.40
2022-11-09T06:06:47.824Z,10.40
2022-11-09T06:09:17.342Z,10.40
2022-11-09T06:11:45.506Z,10.40
2022-11-09T06:14:14.061Z,10.40
2022-11-09T06:16:42.213Z,10.40
2022-11-09T06:19:10.555Z,10.40
2022-11-09T06:21:38.803Z,10.40
2022-11-09T06:24:07.805Z,10.40
2022-11-09T06:26:37.989Z,10.40
2022-11-09T06:29:06.452Z,10.50
2022-11-09T06:31:34.729Z,10.50
2022-11-09T06:34:03.304Z,10.50
2022-11-09T06:36:31.460Z,10.50
2022-11-09T06:38:59.565Z,10.50
2022-11-09T06:41:27.751Z,10.50
2022-11-09T06:43:57.230Z,10.50
2022-11-09T06:46:25.608Z,10.50
2022-11-09T06:48:54.762Z,10.50
2022-11-09T06:51:23.013Z,10.50
2022-11-09T06:53:51.228Z,10.50
2022-11-09T06:56:19.380Z,10.50
2022-11-09T06:58:47.575Z,10.50
2022-11-09T07:01:27.423Z,10.60
2022-11-09T07:03:55.614Z,10.60
2022-11-09T07:06:24.179Z,10.60
2022-11-09T07:08:56.807Z,10.60
2022-11-09T07:11:25.080Z,10.60
2022-11-09T07:13:57.213Z,10.60
2022-11-09T07:16:26.990Z,10.60
2022-11-09T07:18:55.072Z,10.60
2022-11-09T07:21:23.398Z,10.60
2022-11-09T07:23:52.338Z,10.60
2022-11-09T07:26:20.532Z,10.60
2022-11-09T07:28:48.712Z,10.60
2022-11-09T07:31:16.895Z,10.60
2022-11-09T07:33:46.472Z,10.60
2022-11-09T07:36:19.920Z,10.60
2022-11-09T07:38:49.581Z,10.60
2022-11-09T07:41:17.700Z,10.60
2022-11-09T07:43:45.817Z,10.70
2022-11-09T07:46:14.707Z,10.70
2022-11-09T07:48:42.941Z,10.70
2022-11-09T07:51:12.601Z,10.80
2022-11-09T07:53:40.816Z,10.80
2022-11-09T07:56:09.340Z,10.80
2022-11-09T07:58:37.499Z,10.80
2022-11-09T08:01:09.433Z,10.90
2022-11-09T08:03:37.944Z,10.90
2022-11-09T08:06:06.892Z,10.90
2022-11-09T08:08:36.339Z,11.00
2022-11-09T08:11:04.614Z,11.00
2022-11-09T08:13:32.807Z,11.10
2022-11-09T08:16:03.204Z,11.10
2022-11-09T08:18:31.707Z,11.20
2022-11-09T08:21:03.766Z,11.30
2022-11-09T08:23:32.373Z,11.40
2022-11-09T08:26:05.211Z,11.40
2022-11-09T08:28:34.045Z,11.50
2022-11-09T08:31:05.199Z,11.50
2022-11-09T08:33:37.257Z,11.60
2022-11-09T08:36:11.766Z,11.60
2022-11-09T08:38:40.249Z,11.60
2022-11-09T08:41:13.408Z,11.60
2022-11-09T08:43:42.046Z,11.60
2022-11-09T08:46:10.220Z,11.50
2022-11-09T08:48:38.364Z,11.60
2022-11-09T08:51:06.914Z,11.60
2022-11-09T08:53:35.089Z,11.70
2022-11-09T08:56:03.226Z,11.70
2022-11-09T08:58:32.752Z,11.80
2022-11-09T09:01:00.898Z,11.90
2022-11-09T09:03:29.089Z,11.90
2022-11-09T09:05:57.246Z,12.00
2022-11-09T09:08:25.905Z,12.10
2022-11-09T09:10:54.070Z,12.10
2022-11-09T09:13:22.635Z,12.20
2022-11-09T09:15:52.261Z,12.20
2022-11-09T09:18:20.732Z,12.30
2022-11-09T09:20:49.102Z,12.30
2022-11-09T09:23:17.389Z,12.30
2022-11-09T09:25:45.596Z,12.30
2022-11-09T09:28:13.714Z,12.30
2022-11-09T09:30:41.838Z,12.30
2022-11-09T09:33:11.906Z,12.30
2022-11-09T09:35:40.040Z,12.30
2022-11-09T09:38:08.163Z,12.40
2022-11-09T09:40:55.835Z,12.40
2022-11-09T09:43:42.783Z,12.50
2022-11-09T09:46:28.144Z,12.50
2022-11-09T09:49:06.135Z,12.60
2022-11-09T09:51:42.007Z,12.60
2022-11-09T09:54:20.883Z,12.70
2022-11-09T09:56:54.300Z,12.70
2022-11-09T09:59:33.037Z,12.80
2022-11-09T10:02:01.403Z,12.90
2022-11-09T10:04:38.689Z,13.00
2022-11-09T10:07:16.236Z,13.10
2022-11-09T10:10:10.497Z,13.20
2022-11-09T10:12:58.983Z,13.40
2022-11-09T10:15:32.785Z,13.50
2022-11-09T10:18:31.317Z,13.60
2022-11-09T10:21:21.695Z,13.60
2022-11-09T10:24:08.680Z,13.70
2022-11-09T10:26:45.311Z,13.80
2022-11-09T10:29:23.799Z,13.90
2022-11-09T10:31:54.779Z,14.00
2022-11-09T10:34:30.228Z,14.00
2022-11-09T10:37:11.747Z,14.00
2022-11-09T10:39:50.487Z,14.10
2022-11-09T10:42:37.520Z,14.20
2022-11-09T10:45:34.036Z,14.20
2022-11-09T10:48:33.489Z,14.30
2022-11-09T10:51:39.433Z,14.30
2022-11-09T10:54:29.554Z,14.40
2022-11-09T10:57:21.102Z,14.50
2022-11-09T11:00:17.557Z,14.50
2022-11-09T11:03:16.184Z,14.60
2022-11-09T11:06:05.471Z,14.70
2022-11-09T11:08:54.370Z,14.80
2022-11-09T11:11:42.868Z,14.90
2022-11-09T11:14:34.809Z,15.10
2022-11-09T11:17:28.399Z,15.20
2022-11-09T11:20:30.626Z,15.40
2022-11-09T11:23:20.243Z,15.50
2022-11-09T11:26:27.867Z,15.60
2022-11-09T11:29:35.972Z,15.70
2022-11-09T11:32:26.643Z,15.80
2022-11-09T11:35:17.367Z,16.00
2022-11-09T11:38:23.673Z,16.10
2022-11-09T11:41:37.534Z,16.30
2022-11-09T11:44:52.692Z,16.60
2022-11-09T11:47:58.085Z,17.00
2022-11-09T11:50:52.817Z,17.30
2022-11-09T11:53:58.293Z,17.40
2022-11-09T11:56:53.700Z,17.50
2022-11-09T12:00:12.056Z,17.30
2022-11-09T12:03:33.680Z,17.20
2022-11-09T12:06:37.647Z,17.00
2022-11-09T12:09:49.580Z,16.90
2022-11-09T12:12:48.771Z,16.80
2022-11-09T12:15:53.237Z,16.80
2022-11-09T12:18:55.826Z,16.80
2022-11-09T12:21:54.459Z,16.80
2022-11-09T12:24:50.571Z,16.70
2022-11-09T12:28:02.869Z,16.80
2022-11-09T12:31:10.218Z,16.80
2022-11-09T12:34:07.067Z,16.80
2022-11-09T12:36:58.794Z,16.80
2022-11-09T12:39:48.753Z,16.80
2022-11-09T12:42:43.379Z,16.80
2022-11-09T12:45:34.624Z,16.80
2022-11-09T12:48:29.206Z,16.90
2022-11-09T12:51:16.956Z,17.00
2022-11-09T12:54:11.652Z,17.30
2022-11-09T12:57:03.849Z,18.30
2022-11-09T12:59:54.080Z,18.60
2022-11-09T13:02:54.805Z,18.40
2022-11-09T13:05:44.955Z,18.20
2022-11-09T13:08:33.323Z,18.00
2022-11-09T13:11:26.929Z,17.80
2022-11-09T13:14:36.997Z,17.60
2022-11-09T13:18:05.403Z,17.40
2022-11-09T13:20:56.775Z,17.30
2022-11-09T13:24:03.688Z,17.20
2022-11-09T13:26:59.865Z,17.10
2022-11-09T13:29:56.074Z,17.00
2022-11-09T13:33:21.888Z,16.90
2022-11-09T13:36:21.139Z,16.80
2022-11-09T13:39:34.041Z,16.70
2022-11-09T13:42:33.271Z,16.70
2022-11-09T13:45:30.892Z,16.60
2022-11-09T13:48:45.171Z,16.60
2022-11-09T13:51:47.105Z,16.50
2022-11-09T13:54:35.459Z,16.50
2022-11-09T13:57:24.754Z,16.40
2022-11-09T14:00:19.650Z,16.40
2022-11-09T14:03:20.993Z,16.30
2022-11-09T14:06:12.107Z,16.30
2022-11-09T14:09:02.146Z,16.20
2022-11-09T14:12:19.874Z,16.10
2022-11-09T14:15:30.192Z,16.10
2022-11-09T14:18:41.252Z,16.00
2022-11-09T14:21:43.814Z,15.90
2022-11-09T14:24:33.678Z,15.90
2022-11-09T14:27:22.752Z,15.80
2022-11-09T14:30:21.361Z,15.70
2022-11-09T14:33:23.992Z,15.70
2022-11-09T14:36:14.723Z,15.60
2022-11-09T14:39:05.347Z,15.50
2022-11-09T14:41:53.852Z,15.50
2022-11-09T14:44:45.569Z,15.50
2022-11-09T14:47:39.457Z,15.40
2022-11-09T14:50:29.059Z,15.30
2022-11-09T14:53:22.256Z,15.30
2022-11-09T14:56:15.233Z,15.20
2022-11-09T14:59:07.915Z,15.20
2022-11-09T15:02:04.583Z,15.10
2022-11-09T15:04:57.614Z,15.10
2022-11-09T15:07:48.320Z,15.00
2022-11-09T15:10:36.138Z,14.90
2022-11-09T15:13:33.066Z,14.90
2022-11-09T15:16:30.226Z,14.80
2022-11-09T15:19:29.033Z,14.80
2022-11-09T15:22:49.210Z,14.70
2022-11-09T15:25:53.216Z,14.70
2022-11-09T15:28:48.127Z,14.60
2022-11-09T15:31:36.571Z,14.60
2022-11-09T15:34:26.740Z,14.50
2022-11-09T15:37:29.664Z,14.50
2022-11-09T15:40:21.660Z,14.50
2022-11-09T15:43:08.400Z,14.40
2022-11-09T15:45:56.174Z,14.40
2022-11-09T15:48:46.262Z,14.40
2022-11-09T15:51:34.705Z,14.30
2022-11-09T15:54:22.597Z,14.30
2022-11-09T15:57:15.777Z,14.30
2022-11-09T16:00:07.779Z,14.20
2022-11-09T16:02:57.812Z,14.20
2022-11-09T16:05:46.793Z,14.20
2022-11-09T16:08:33.494Z,14.10
2022-11-09T16:11:20.709Z,14.10
2022-11-09T16:14:07.433Z,14.10
2022-11-09T16:16:54.356Z,14.10
2022-11-09T16:19:43.139Z,14.00
2022-11-09T16:22:33.820Z,14.00
2022-11-09T16:25:21.087Z,14.00
2022-11-09T16:28:07.703Z,14.00
2022-11-09T16:30:54.650Z,14.00
2022-11-09T16:33:41.949Z,13.90
2022-11-09T16:36:30.089Z,13.90
2022-11-09T16:39:18.374Z,13.90
2022-11-09T16:42:11.105Z,13.90
2022-11-09T16:45:09.031Z,13.80
2022-11-09T16:47:58.435Z,13.80
2022-11-09T16:50:46.970Z,13.80
2022-11-09T16:53:33.971Z,13.80
2022-11-09T16:56:22.218Z,13.80
2022-11-09T16:59:08.853Z,13.70
2022-11-09T17:01:58.853Z,13.70
2022-11-09T17:04:45.757Z,13.70
2022-11-09T17:07:42.211Z,13.70
2022-11-09T17:10:29.955Z,13.70
2022-11-09T17:13:18.100Z,13.70
2022-11-09T17:16:09.105Z,13.60
2022-11-09T17:18:57.775Z,13.60
2022-11-09T17:21:44.798Z,13.60
2022-11-09T17:24:32.761Z,13.60
2022-11-09T17:27:19.406Z,13.60
2022-11-09T17:30:10.624Z,13.60
2022-11-09T17:32:57.538Z,13.50
2022-11-09T17:35:44.308Z,13.50
2022-11-09T17:38:32.053Z,13.50
2022-11-09T17:41:21.819Z,13.50
2022-11-09T17:44:08.515Z,13.50
2022-11-09T17:46:56.800Z,13.50
2022-11-09T17:49:43.634Z,13.50
2022-11-09T17:52:30.607Z,13.50
2022-11-09T17:55:18.008Z,13.50
2022-11-09T17:58:05.463Z,13.50
2022-11-09T18:00:52.773Z,13.50
2022-11-09T18:03:41.425Z,13.50
2022-11-09T18:06:29.300Z,13.40
2022-11-09T18:09:40.339Z,13.40
2022-11-09T18:12:23.862Z,13.40
2022-11-09T18:15:11.923Z,13.40
2022-11-09T18:17:59.122Z,13.40
2022-11-09T18:20:47.563Z,13.40
2022-11-09T18:23:36.153Z,13.40
2022-11-09T18:26:23.172Z,13.40
2022-11-09T18:29:09.991Z,13.40
2022-11-09T18:31:56.819Z,13.40
2022-11-09T18:34:43.629Z,13.40
2022-11-09T18:37:35.177Z,13.40
2022-11-09T18:40:21.702Z,13.40
2022-11-09T18:43:08.480Z,13.40
2022-11-09T18:45:57.331Z,13.40
2022-11-09T18:48:45.050Z,13.40
2022-11-09T18:51:31.641Z,13.40
2022-11-09T18:54:19.979Z,13.40
2022-11-09T18:57:06.595Z,13.40
2022-11-09T18:59:53.628Z,13.40
2022-11-09T19:02:40.566Z,13.40
2022-11-09T19:05:27.549Z,13.40
2022-11-09T19:08:14.552Z,13.40
2022-11-09T19:11:08.186Z,13.40
2022-11-09T19:13:55.983Z,13.40
2022-11-09T19:16:42.963Z,13.40
2022-11-09T19:19:30.026Z,13.40
2022-11-09T19:22:19.294Z,13.40
2022-11-09T19:25:07.634Z,13.40
2022-11-09T19:27:55.538Z,13.40
2022-11-09T19:30:42.414Z,13.40
2022-11-09T19:33:29.477Z,13.40
2022-11-09T19:36:30.192Z,13.40
2022-11-09T19:39:18.491Z,13.40
2022-11-09T19:42:05.857Z,13.40
2022-11-09T19:44:56.642Z,13.40
2022-11-09T19:47:44.055Z,13.40
2022-11-09T19:50:30.818Z,13.40
2022-11-09T19:53:18.136Z,13.40
2022-11-09T19:56:08.621Z,13.40
2022-11-09T19:58:59.086Z,13.40
2022-11-09T20:01:46.866Z,13.40
2022-11-09T20:04:36.770Z,13.40
2022-11-09T20:07:23.605Z,13.40
2022-11-09T20:10:12.349Z,13.40
2022-11-09T20:12:59.293Z,13.40
2022-11-09T20:15:46.299Z,13.40
2022-11-09T20:18:36.286Z,13.30
2022-11-09T20:21:23.358Z,13.30
2022-11-09T20:24:12.777Z,13.30
2022-11-09T20:26:59.703Z,13.30
2022-11-09T20:29:46.447Z,13.30
2022-11-09T20:32:33.679Z,13.20
2022-11-09T20:35:22.181Z,13.20
2022-11-09T20:38:08.865Z,13.20
2022-11-09T20:40:56.991Z,13.20
2022-11-09T20:43:43.954Z,13.20
2022-11-09T20:46:35.770Z,13.10
2022-11-09T20:49:23.327Z,13.10
2022-11-09T20:52:11.701Z,13.10
2022-11-09T20:54:58.650Z,13.10
2022-11-09T20:57:45.652Z,13.10
2022-11-09T21:00:33.992Z,13.10
2022-11-09T21:03:21.334Z,13.10
2022-11-09T21:06:10.085Z,13.10
2022-11-09T21:09:00.871Z,13.10
2022-11-09T21:12:05.271Z,13.10
2022-11-09T21:14:52.989Z,13.00
2022-11-09T21:17:39.723Z,13.00
2022-11-09T21:20:26.486Z,13.00
2022-11-09T21:23:31.236Z,13.00
2022-11-09T21:26:36.938Z,13.00
2022-11-09T21:29:43.526Z,12.90
2022-11-09T21:32:31.653Z,13.00
2022-11-09T21:35:18.886Z,13.00
2022-11-09T21:38:05.435Z,13.00
2022-11-09T21:40:53.398Z,13.00
2022-11-09T21:43:41.625Z,13.00
2022-11-09T21:46:28.494Z,13.00
2022-11-09T21:49:15.384Z,13.10
2022-11-09T21:52:03.397Z,13.10
2022-11-09T21:54:50.380Z,13.10
2022-11-09T21:57:37.333Z,13.00
2022-11-09T22:00:25.816Z,13.00
2022-11-09T22:03:12.868Z,13.00
2022-11-09T22:05:59.614Z,13.00
2022-11-09T22:08:47.273Z,13.00
2022-11-09T22:11:51.625Z,13.00
2022-11-09T22:14:56.200Z,13.00
2022-11-09T22:17:44.383Z,13.00
2022-11-09T22:20:48.769Z,12.90
2022-11-09T22:23:35.741Z,12.90
2022-11-09T22:26:22.646Z,12.90
2022-11-09T22:29:09.698Z,12.90
2022-11-09T22:31:56.762Z,12.90
2022-11-09T22:34:45.679Z,12.90
2022-11-09T22:37:32.347Z,12.90
2022-11-09T22:40:19.481Z,12.90
2022-11-09T22:43:06.153Z,12.90
2022-11-09T22:45:53.233Z,12.80
2022-11-09T22:48:41.338Z,12.80
2022-11-09T22:51:29.655Z,12.80
2022-11-09T22:54:16.715Z,12.80
2022-11-09T22:57:03.864Z,12.80
2022-11-09T22:59:50.413Z,12.70
2022-11-09T23:02:37.648Z,12.70
2022-11-09T23:05:24.271Z,12.70
2022-11-09T23:08:12.806Z,12.60
2022-11-09T23:11:00.288Z,12.60
2022-11-09T23:13:50.218Z,12.60
2022-11-09T23:16:37.197Z,12.60
2022-11-09T23:19:23.204Z,12.50
2022-11-09T23:22:10.291Z,12.50
2022-11-09T23:25:15.904Z,12.50
2022-11-09T23:28:02.976Z,12.50
2022-11-09T23:30:49.751Z,12.50
2022-11-09T23:33:37.137Z,12.50
2022-11-09T23:36:26.057Z,12.50
2022-11-09T23:39:12.764Z,12.50
2022-11-09T23:42:00.870Z,12.50
2022-11-09T23:44:47.690Z,12.50
2022-11-09T23:47:34.447Z,12.50
2022-11-09T23:50:22.373Z,12.40
2022-11-09T23:53:10.360Z,12.40
2022-11-09T23:56:02.166Z,12.40
2022-11-09T23:58:51.898Z,12.40
